createdAt,value
2023-09-12T00:02:18.721Z,17.48
2023-09-12T00:04:45.604Z,17.50
2023-09-12T00:07:12.708Z,17.53
2023-09-12T00:09:39.570Z,17.55
2023-09-12T00:12:06.823Z,17.55
2023-09-12T00:14:33.624Z,17.57
2023-09-12T00:17:00.397Z,17.59
2023-09-12T00:19:27.164Z,17.58
2023-09-12T00:21:54.606Z,17.59
2023-09-12T00:24:21.575Z,17.57
2023-09-12T00:26:48.523Z,17.57
2023-09-12T00:29:15.308Z,17.53
2023-09-12T00:31:42.176Z,17.52
2023-09-12T00:34:09.049Z,17.51
2023-09-12T00:36:38.296Z,17.53
2023-09-12T00:39:05.134Z,17.55
2023-09-12T00:41:31.926Z,17.58
2023-09-12T00:43:59.445Z,17.59
2023-09-12T00:46:27.625Z,17.63
2023-09-12T00:48:55.314Z,17.65
2023-09-12T00:51:23.062Z,17.66
2023-09-12T00:53:50.086Z,17.66
2023-09-12T00:56:16.967Z,17.68
2023-09-12T00:58:44.581Z,17.68
2023-09-12T01:01:11.816Z,17.66
2023-09-12T01:03:39.395Z,17.63
2023-09-12T01:06:08.164Z,17.62
2023-09-12T01:08:38.639Z,17.56
2023-09-12T01:11:05.534Z,17.53
2023-09-12T01:13:32.382Z,17.50
2023-09-12T01:15:59.299Z,17.48
2023-09-12T01:18:26.318Z,17.45
2023-09-12T01:21:09.896Z,17.42
2023-09-12T01:24:05.662Z,17.38
2023-09-12T01:26:57.186Z,17.31
2023-09-12T01:29:25.366Z,17.29
2023-09-12T01:31:53.853Z,17.26
2023-09-12T01:34:20.728Z,17.22
2023-09-12T01:36:47.553Z,17.18
2023-09-12T01:39:14.618Z,17.13
2023-09-12T01:41:47.004Z,17.10
2023-09-12T01:44:16.048Z,17.09
2023-09-12T01:46:44.326Z,17.11
2023-09-12T01:49:12.261Z,17.10
2023-09-12T01:51:39.550Z,17.12
2023-09-12T01:54:08.226Z,17.13
2023-09-12T01:56:35.771Z,17.12
2023-09-12T01:59:03.848Z,17.13
2023-09-12T02:01:30.654Z,17.16
2023-09-12T02:03:57.522Z,17.14
2023-09-12T02:06:24.828Z,17.16
2023-09-12T02:08:51.649Z,17.16
2023-09-12T02:11:18.462Z,17.16
2023-09-12T02:13:45.282Z,17.16
2023-09-12T02:16:12.223Z,17.16
2023-09-12T02:18:39.101Z,17.18
2023-09-12T02:21:05.983Z,17.20
2023-09-12T02:23:32.797Z,17.21
2023-09-12T02:25:59.662Z,17.22
2023-09-12T02:28:26.435Z,17.23
2023-09-12T02:30:53.223Z,17.23
2023-09-12T02:33:20.176Z,17.22
2023-09-12T02:35:47.038Z,17.23
2023-09-12T02:38:15.240Z,17.26
2023-09-12T02:40:42.050Z,17.25
2023-09-12T02:43:08.923Z,17.21
2023-09-12T02:45:35.765Z,17.16
2023-09-12T02:48:02.784Z,17.15
2023-09-12T02:50:29.694Z,17.12
2023-09-12T02:52:56.445Z,17.10
2023-09-12T02:55:24.483Z,17.07
2023-09-12T02:57:51.259Z,17.06
2023-09-12T03:00:18.896Z,17.05
2023-09-12T03:02:45.847Z,17.03
2023-09-12T03:05:12.694Z,17.04
2023-09-12T03:07:39.491Z,17.01
2023-09-12T03:10:06.651Z,16.98
2023-09-12T03:12:33.446Z,16.97
2023-09-12T03:15:00.239Z,16.94
2023-09-12T03:17:29.155Z,16.95
2023-09-12T03:19:55.949Z,16.95
2023-09-12T03:22:22.708Z,16.96
2023-09-12T03:24:49.500Z,16.93
2023-09-12T03:27:16.263Z,16.93
2023-09-12T03:29:43.035Z,16.94
2023-09-12T03:32:09.845Z,16.93
2023-09-12T03:34:36.591Z,16.94
2023-09-12T03:37:03.595Z,16.94
2023-09-12T03:39:30.494Z,16.96
2023-09-12T03:41:57.411Z,16.98
2023-09-12T03:44:24.378Z,17.01
2023-09-12T03:46:51.119Z,17.03
2023-09-12T03:49:17.922Z,17.03
2023-09-12T03:51:44.730Z,17.04
2023-09-12T03:54:11.571Z,17.04
2023-09-12T03:56:38.394Z,17.05
2023-09-12T03:59:05.214Z,17.08
2023-09-12T04:01:32.069Z,17.09
2023-09-12T04:04:00.443Z,17.10
2023-09-12T04:06:29.598Z,17.09
2023-09-12T04:08:56.419Z,17.08
2023-09-12T04:11:35.346Z,17.08
2023-09-12T04:14:06.910Z,17.07
2023-09-12T04:16:35.022Z,17.08
2023-09-12T04:19:02.071Z,17.08
2023-09-12T04:21:28.889Z,17.06
2023-09-12T04:23:55.679Z,17.02
2023-09-12T04:26:22.510Z,16.97
2023-09-12T04:28:49.438Z,16.98
2023-09-12T04:31:16.283Z,16.97
2023-09-12T04:33:43.155Z,16.95
2023-09-12T04:36:10.169Z,16.95
2023-09-12T04:38:38.451Z,16.93
2023-09-12T04:41:08.345Z,16.90
2023-09-12T04:43:35.276Z,16.87
2023-09-12T04:46:02.240Z,16.83
2023-09-12T04:48:29.200Z,16.79
2023-09-12T04:50:56.692Z,16.81
2023-09-12T04:53:23.650Z,16.81
2023-09-12T04:55:52.971Z,16.78
2023-09-12T04:58:19.755Z,16.79
2023-09-12T05:00:46.833Z,16.75
2023-09-12T05:03:13.707Z,16.78
2023-09-12T05:05:40.557Z,16.78
2023-09-12T05:08:07.363Z,16.78
2023-09-12T05:10:34.336Z,16.79
2023-09-12T05:13:01.158Z,16.77
2023-09-12T05:15:27.944Z,16.74
2023-09-12T05:17:54.782Z,16.76
2023-09-12T05:20:21.590Z,16.76
2023-09-12T05:22:48.363Z,16.72
2023-09-12T05:25:15.194Z,16.74
2023-09-12T05:27:41.974Z,16.79
2023-09-12T05:30:09.134Z,16.77
2023-09-12T05:32:37.740Z,16.72
2023-09-12T05:35:19.053Z,16.71
2023-09-12T05:37:47.999Z,16.70
2023-09-12T05:40:14.881Z,16.70
2023-09-12T05:42:41.697Z,16.70
2023-09-12T05:45:08.860Z,16.68
2023-09-12T05:47:35.801Z,16.67
2023-09-12T05:50:05.736Z,16.66
2023-09-12T05:52:32.517Z,16.67
2023-09-12T05:54:59.519Z,16.67
2023-09-12T05:57:26.352Z,16.66
2023-09-12T05:59:53.197Z,16.65
2023-09-12T06:02:20.170Z,16.69
2023-09-12T06:04:47.049Z,16.69
2023-09-12T06:07:14.018Z,16.69
2023-09-12T06:09:40.830Z,16.68
2023-09-12T06:12:07.932Z,16.71
2023-09-12T06:14:34.787Z,16.73
2023-09-12T06:17:01.610Z,16.76
2023-09-12T06:19:28.397Z,16.73
2023-09-12T06:21:56.886Z,16.73
2023-09-12T06:24:24.716Z,16.75
2023-09-12T06:26:51.626Z,16.79
2023-09-12T06:29:18.864Z,16.83
2023-09-12T06:31:45.674Z,16.82
2023-09-12T06:34:12.597Z,16.87
2023-09-12T06:36:40.163Z,16.87
2023-09-12T06:39:06.923Z,16.85
2023-09-12T06:41:33.806Z,16.85
2023-09-12T06:44:00.751Z,16.86
2023-09-12T06:46:27.747Z,16.84
2023-09-12T06:48:54.730Z,16.87
2023-09-12T06:51:25.861Z,16.82
2023-09-12T06:53:53.756Z,16.81
2023-09-12T06:56:20.568Z,16.83
2023-09-12T06:58:47.365Z,16.82
2023-09-12T07:01:14.189Z,16.85
2023-09-12T07:03:41.584Z,16.86
2023-09-12T07:06:09.538Z,16.83
2023-09-12T07:08:37.067Z,16.87
2023-09-12T07:11:07.325Z,16.87
2023-09-12T07:13:34.434Z,16.91
2023-09-12T07:16:04.811Z,16.95
2023-09-12T07:18:35.689Z,17.01
2023-09-12T07:21:04.693Z,17.03
2023-09-12T07:23:32.034Z,17.06
2023-09-12T07:25:59.052Z,17.06
2023-09-12T07:28:26.707Z,17.08
2023-09-12T07:30:54.912Z,17.07
2023-09-12T07:33:22.535Z,17.08
2023-09-12T07:35:50.182Z,17.08
2023-09-12T07:38:16.952Z,17.10
2023-09-12T07:40:43.773Z,17.12
2023-09-12T07:43:11.385Z,17.12
2023-09-12T07:45:39.240Z,17.17
2023-09-12T07:48:12.658Z,17.17
2023-09-12T07:50:40.101Z,17.18
2023-09-12T07:53:07.576Z,17.17
2023-09-12T07:55:46.574Z,17.11
2023-09-12T07:58:21.421Z,17.14
2023-09-12T08:00:48.590Z,17.13
2023-09-12T08:03:16.889Z,17.15
2023-09-12T08:05:44.187Z,17.18
2023-09-12T08:08:11.490Z,17.26
2023-09-12T08:10:38.480Z,17.31
2023-09-12T08:13:05.247Z,17.35
2023-09-12T08:15:32.168Z,17.38
2023-09-12T08:17:58.994Z,17.45
2023-09-12T08:20:25.921Z,17.49
2023-09-12T08:22:52.779Z,17.50
2023-09-12T08:25:19.712Z,17.49
2023-09-12T08:27:46.683Z,17.52
2023-09-12T08:30:15.983Z,17.49
2023-09-12T08:32:45.643Z,17.47
2023-09-12T08:35:13.963Z,17.43
2023-09-12T08:37:42.021Z,17.42
2023-09-12T08:40:11.850Z,17.44
2023-09-12T08:42:46.647Z,17.40
2023-09-12T08:45:16.268Z,17.42
2023-09-12T08:47:50.919Z,17.47
2023-09-12T08:50:19.966Z,17.52
2023-09-12T08:52:59.822Z,17.52
2023-09-12T08:55:36.993Z,17.53
2023-09-12T08:58:06.096Z,17.51
2023-09-12T09:00:35.737Z,17.55
2023-09-12T09:03:04.850Z,17.60
2023-09-12T09:05:34.304Z,17.59
2023-09-12T09:08:02.857Z,17.61
2023-09-12T09:10:42.648Z,17.62
2023-09-12T09:13:17.120Z,17.69
2023-09-12T09:15:44.014Z,17.70
2023-09-12T09:18:12.591Z,17.79
2023-09-12T09:20:41.184Z,17.89
2023-09-12T09:23:12.122Z,17.97
2023-09-12T09:25:44.574Z,18.09
2023-09-12T09:28:22.251Z,18.19
2023-09-12T09:30:53.174Z,18.17
2023-09-12T09:33:21.654Z,18.19
2023-09-12T09:35:50.252Z,18.22
2023-09-12T09:38:20.833Z,18.17
2023-09-12T09:40:48.438Z,18.19
2023-09-12T09:43:21.712Z,18.23
2023-09-12T09:45:49.037Z,18.20
2023-09-12T09:48:23.561Z,18.20
2023-09-12T09:50:51.082Z,18.19
2023-09-12T09:53:19.090Z,18.27
2023-09-12T09:55:46.341Z,18.33
2023-09-12T09:58:20.451Z,18.34
2023-09-12T10:00:49.928Z,18.41
2023-09-12T10:03:20.233Z,18.42
2023-09-12T10:05:49.782Z,18.50
2023-09-12T10:08:20.687Z,18.51
2023-09-12T10:10:49.497Z,18.57
2023-09-12T10:13:18.004Z,18.58
2023-09-12T10:15:46.313Z,18.64
2023-09-12T10:18:29.502Z,18.74
2023-09-12T10:21:13.284Z,18.79
2023-09-12T10:23:45.744Z,18.84
2023-09-12T10:26:14.486Z,18.96
2023-09-12T10:28:43.357Z,19.06
2023-09-12T10:31:14.159Z,19.13
2023-09-12T10:33:42.051Z,19.12
2023-09-12T10:36:10.941Z,19.04
2023-09-12T10:38:49.343Z,18.91
2023-09-12T10:41:17.359Z,18.84
2023-09-12T10:43:51.137Z,18.73
2023-09-12T10:46:18.766Z,18.77
2023-09-12T10:48:46.471Z,18.77
2023-09-12T10:51:15.146Z,18.90
2023-09-12T10:53:49.801Z,19.02
2023-09-12T10:56:22.521Z,19.08
2023-09-12T10:59:13.917Z,18.92
2023-09-12T11:01:45.151Z,18.71
2023-09-12T11:04:21.965Z,18.35
2023-09-12T11:06:49.348Z,18.38
2023-09-12T11:09:21.089Z,18.35
2023-09-12T11:11:50.055Z,18.14
2023-09-12T11:14:20.535Z,18.25
2023-09-12T11:17:09.079Z,18.38
2023-09-12T11:19:49.062Z,17.98
2023-09-12T11:22:27.692Z,18.05
2023-09-12T11:24:57.541Z,17.97
2023-09-12T11:27:33.366Z,17.75
2023-09-12T11:30:07.060Z,17.86
2023-09-12T11:32:37.610Z,17.88
2023-09-12T11:35:09.285Z,17.66
2023-09-12T11:37:39.386Z,17.62
2023-09-12T11:40:42.294Z,17.52
2023-09-12T11:43:20.961Z,17.36
2023-09-12T11:45:48.722Z,17.58
2023-09-12T11:48:15.706Z,17.76
2023-09-12T11:50:42.905Z,17.95
2023-09-12T11:53:12.128Z,17.76
2023-09-12T11:55:50.027Z,17.92
2023-09-12T11:58:19.303Z,17.89
2023-09-12T12:00:52.195Z,17.65
2023-09-12T12:03:21.185Z,17.68
2023-09-12T12:05:48.786Z,17.60
2023-09-12T12:10:55.517Z,17.58
2023-09-12T12:13:23.718Z,17.62
2023-09-12T12:15:51.427Z,17.60
2023-09-12T12:18:18.434Z,17.58
2023-09-12T12:20:45.396Z,17.61
2023-09-12T12:23:13.727Z,17.83
2023-09-12T12:25:41.610Z,17.83
2023-09-12T12:28:08.513Z,17.59
2023-09-12T12:30:37.374Z,17.57
2023-09-12T12:33:24.218Z,17.07
2023-09-12T12:36:09.107Z,16.96
2023-09-12T12:38:41.743Z,17.28
2023-09-12T12:41:40.773Z,17.25
2023-09-12T12:44:12.971Z,17.38
2023-09-12T12:46:56.092Z,17.18
2023-09-12T12:49:24.344Z,16.84
2023-09-12T12:51:51.590Z,16.87
2023-09-12T12:54:18.477Z,16.81
2023-09-12T12:56:47.959Z,16.86
2023-09-12T12:59:14.795Z,16.78
2023-09-12T13:01:41.664Z,17.01
2023-09-12T13:04:09.944Z,17.20
2023-09-12T13:06:37.827Z,17.41
2023-09-12T13:09:07.045Z,17.38
2023-09-12T13:11:37.375Z,17.42
2023-09-12T13:14:12.380Z,17.32
2023-09-12T13:16:42.820Z,17.10
2023-09-12T13:19:12.479Z,17.07
2023-09-12T13:21:39.593Z,16.70
2023-09-12T13:24:06.644Z,16.72
2023-09-12T13:26:33.437Z,16.76
2023-09-12T13:29:00.326Z,16.62
2023-09-12T13:31:27.612Z,16.57
2023-09-12T13:33:54.634Z,16.51
2023-09-12T13:36:21.642Z,16.52
2023-09-12T13:38:49.775Z,16.53
2023-09-12T13:41:16.744Z,16.48
2023-09-12T13:43:46.654Z,16.47
2023-09-12T13:46:14.152Z,16.49
2023-09-12T13:48:41.312Z,16.42
2023-09-12T13:51:08.260Z,16.34
2023-09-12T13:53:35.724Z,16.38
2023-09-12T13:56:18.608Z,16.32
2023-09-12T13:58:50.604Z,16.51
2023-09-12T14:01:30.002Z,16.60
2023-09-12T14:04:00.681Z,16.58
2023-09-12T14:06:29.135Z,16.57
2023-09-12T14:08:56.326Z,16.63
2023-09-12T14:11:32.165Z,16.51
2023-09-12T14:14:15.400Z,16.47
2023-09-12T14:16:48.229Z,16.55
2023-09-12T14:19:16.754Z,16.50
2023-09-12T14:21:46.519Z,16.36
2023-09-12T14:24:14.123Z,16.23
2023-09-12T14:26:42.121Z,15.99
2023-09-12T14:29:09.454Z,15.98
2023-09-12T14:31:38.381Z,15.96
2023-09-12T14:34:07.469Z,16.00
2023-09-12T14:36:34.325Z,15.99
2023-09-12T14:39:01.262Z,16.11
2023-09-12T14:41:28.024Z,16.00
2023-09-12T14:43:54.837Z,15.88
2023-09-12T14:46:21.732Z,15.68
2023-09-12T14:48:58.940Z,15.80
2023-09-12T14:51:32.408Z,15.82
2023-09-12T14:54:01.281Z,15.78
2023-09-12T14:56:28.116Z,15.71
2023-09-12T14:58:55.247Z,15.70
2023-09-12T15:01:22.233Z,15.55
2023-09-12T15:03:49.317Z,15.53
2023-09-12T15:06:16.422Z,15.78
2023-09-12T15:08:43.217Z,15.77
2023-09-12T15:11:10.272Z,15.56
2023-09-12T15:13:37.219Z,15.73
2023-09-12T15:16:05.797Z,15.78
2023-09-12T15:18:33.245Z,15.68
2023-09-12T15:21:00.436Z,15.72
2023-09-12T15:23:27.263Z,15.88
2023-09-12T15:25:54.250Z,15.64
2023-09-12T15:28:21.511Z,15.76
2023-09-12T15:30:48.349Z,15.87
2023-09-12T15:33:15.327Z,15.86
2023-09-12T15:35:42.351Z,15.79
2023-09-12T15:38:09.388Z,15.63
2023-09-12T15:40:36.476Z,15.64
2023-09-12T15:43:18.381Z,15.65
2023-09-12T15:45:51.639Z,15.62
2023-09-12T15:48:19.085Z,15.67
2023-09-12T15:50:46.097Z,15.57
2023-09-12T15:53:12.931Z,15.54
2023-09-12T15:55:39.714Z,15.44
2023-09-12T15:58:06.505Z,15.48
2023-09-12T16:00:33.558Z,15.27
2023-09-12T16:03:00.940Z,15.37
2023-09-12T16:05:27.774Z,15.20
2023-09-12T16:07:54.707Z,15.02
2023-09-12T16:10:21.521Z,15.06
2023-09-12T16:12:48.423Z,15.19
2023-09-12T16:15:16.046Z,15.13
2023-09-12T16:17:44.578Z,15.11
2023-09-12T16:20:15.428Z,15.16
2023-09-12T16:22:43.144Z,15.01
2023-09-12T16:25:12.935Z,15.03
2023-09-12T16:27:39.793Z,15.09
2023-09-12T16:30:09.924Z,15.13
2023-09-12T16:32:39.496Z,15.27
2023-09-12T16:35:07.393Z,15.18
2023-09-12T16:37:34.448Z,15.13
2023-09-12T16:40:02.411Z,15.11
2023-09-12T16:42:31.913Z,15.25
2023-09-12T16:45:00.913Z,15.36
2023-09-12T16:47:28.507Z,15.58
2023-09-12T16:49:57.848Z,15.40
2023-09-12T16:52:24.710Z,15.37
2023-09-12T16:54:51.533Z,15.20
2023-09-12T16:57:18.401Z,15.16
2023-09-12T16:59:46.378Z,15.04
2023-09-12T17:02:13.923Z,15.01
2023-09-12T17:04:44.725Z,14.78
2023-09-12T17:07:15.278Z,14.94
2023-09-12T17:09:44.482Z,14.92
2023-09-12T17:12:11.326Z,14.92
2023-09-12T17:14:38.156Z,14.84
2023-09-12T17:17:05.314Z,14.88
2023-09-12T17:19:32.199Z,14.78
2023-09-12T17:21:59.115Z,14.68
2023-09-12T17:24:26.201Z,14.55
2023-09-12T17:26:55.500Z,14.63
2023-09-12T17:29:26.563Z,14.46
2023-09-12T17:31:53.709Z,14.33
2023-09-12T17:34:21.116Z,14.28
2023-09-12T17:36:47.919Z,14.43
2023-09-12T17:39:14.883Z,14.54
2023-09-12T17:41:41.698Z,14.41
2023-09-12T17:44:08.475Z,14.42
2023-09-12T17:46:35.484Z,14.47
2023-09-12T17:49:02.540Z,14.31
2023-09-12T17:51:32.108Z,14.27
2023-09-12T17:53:59.011Z,14.34
2023-09-12T17:56:25.769Z,14.44
2023-09-12T17:58:53.323Z,14.45
2023-09-12T18:01:20.585Z,14.38
2023-09-12T18:03:48.047Z,14.43
2023-09-12T18:06:15.766Z,14.42
2023-09-12T18:08:42.565Z,14.40
2023-09-12T18:11:09.418Z,14.33
2023-09-12T18:13:36.222Z,14.30
2023-09-12T18:16:03.246Z,14.39
2023-09-12T18:18:30.204Z,14.25
2023-09-12T18:20:57.799Z,14.33
2023-09-12T18:23:24.713Z,14.35
2023-09-12T18:25:52.081Z,14.19
2023-09-12T18:28:40.018Z,14.36
2023-09-12T18:31:11.936Z,14.35
2023-09-12T18:33:39.520Z,14.29
2023-09-12T18:36:07.838Z,14.26
2023-09-12T18:38:38.998Z,14.27
2023-09-12T18:41:06.362Z,14.25
2023-09-12T18:43:33.245Z,14.19
2023-09-12T18:46:00.398Z,14.19
2023-09-12T18:48:28.779Z,14.18
2023-09-12T18:50:57.464Z,14.12
2023-09-12T18:53:24.261Z,14.09
2023-09-12T18:55:51.246Z,14.14
2023-09-12T18:58:18.422Z,14.10
2023-09-12T19:00:46.400Z,14.07
2023-09-12T19:03:17.085Z,14.04
2023-09-12T19:05:45.179Z,14.15
2023-09-12T19:08:12.565Z,14.13
2023-09-12T19:10:39.567Z,14.13
2023-09-12T19:13:07.204Z,14.18
2023-09-12T19:15:34.226Z,14.02
2023-09-12T19:18:01.196Z,13.91
2023-09-12T19:20:29.099Z,13.84
2023-09-12T19:22:56.166Z,13.72
2023-09-12T19:25:23.110Z,13.74
2023-09-12T19:27:50.500Z,13.61
2023-09-12T19:30:17.641Z,13.68
2023-09-12T19:32:47.214Z,13.54
2023-09-12T19:35:14.177Z,13.56
2023-09-12T19:37:45.614Z,13.43
2023-09-12T19:40:16.611Z,13.39
2023-09-12T19:42:44.170Z,13.44
2023-09-12T19:45:11.423Z,13.37
2023-09-12T19:47:46.639Z,13.36
2023-09-12T19:50:21.788Z,13.26
2023-09-12T19:52:48.589Z,13.35
2023-09-12T19:55:15.697Z,13.28
2023-09-12T19:57:47.216Z,13.33
2023-09-12T20:00:15.613Z,13.30
2023-09-12T20:02:45.319Z,13.39
2023-09-12T20:05:12.594Z,13.32
2023-09-12T20:07:39.466Z,13.36
2023-09-12T20:10:06.692Z,13.30
2023-09-12T20:12:33.804Z,13.30
2023-09-12T20:15:03.155Z,13.18
2023-09-12T20:17:29.964Z,13.29
2023-09-12T20:19:56.829Z,13.30
2023-09-12T20:22:23.683Z,13.18
2023-09-12T20:24:50.664Z,13.26
2023-09-12T20:27:18.122Z,13.23
2023-09-12T20:29:45.351Z,13.27
2023-09-12T20:32:13.548Z,13.17
2023-09-12T20:34:40.367Z,13.27
2023-09-12T20:37:07.815Z,13.20
2023-09-12T20:39:35.098Z,13.18
2023-09-12T20:42:02.868Z,13.33
2023-09-12T20:44:29.879Z,13.13
2023-09-12T20:46:59.246Z,13.08
2023-09-12T20:49:26.900Z,13.07
2023-09-12T20:51:53.763Z,13.09
2023-09-12T20:54:26.409Z,13.09
2023-09-12T20:56:53.383Z,13.07
2023-09-12T20:59:20.129Z,13.15
2023-09-12T21:01:47.461Z,13.13
2023-09-12T21:04:18.285Z,13.06
2023-09-12T21:06:47.414Z,13.11
2023-09-12T21:09:16.713Z,13.09
2023-09-12T21:11:47.527Z,13.03
2023-09-12T21:14:15.586Z,13.10
2023-09-12T21:16:42.901Z,13.11
2023-09-12T21:19:10.038Z,13.17
2023-09-12T21:21:42.927Z,13.24
2023-09-12T21:24:12.868Z,13.33
2023-09-12T21:26:42.318Z,13.33
2023-09-12T21:29:09.491Z,13.27
2023-09-12T21:31:40.394Z,13.31
2023-09-12T21:34:07.801Z,13.30
2023-09-12T21:36:35.163Z,13.27
2023-09-12T21:39:04.541Z,13.27
2023-09-12T21:41:31.764Z,13.28
2023-09-12T21:43:58.586Z,13.32
2023-09-12T21:46:26.012Z,13.31
2023-09-12T21:48:53.043Z,13.29
2023-09-12T21:51:20.404Z,13.33
2023-09-12T21:53:51.591Z,13.17
2023-09-12T21:56:22.507Z,13.17
2023-09-12T21:58:49.387Z,13.18
2023-09-12T22:01:19.635Z,13.20
2023-09-12T22:03:46.900Z,13.21
2023-09-12T22:06:17.216Z,13.08
2023-09-12T22:08:44.154Z,13.10
2023-09-12T22:11:15.342Z,13.15
2023-09-12T22:13:42.535Z,13.19
2023-09-12T22:16:09.823Z,13.18
2023-09-12T22:18:37.024Z,13.15
2023-09-12T22:21:08.751Z,13.13
2023-09-12T22:23:35.956Z,13.11
2023-09-12T22:26:10.823Z,13.06
2023-09-12T22:28:38.258Z,13.15
2023-09-12T22:31:12.777Z,13.01
2023-09-12T22:33:41.234Z,12.95
2023-09-12T22:36:19.543Z,12.93
2023-09-12T22:38:49.583Z,12.97
2023-09-12T22:41:22.079Z,13.03
2023-09-12T22:43:48.927Z,12.86
2023-09-12T22:46:15.842Z,12.81
2023-09-12T22:48:42.771Z,12.77
2023-09-12T22:51:09.551Z,12.81
2023-09-12T22:53:36.415Z,12.88
2023-09-12T22:56:04.101Z,12.83
2023-09-12T22:58:32.858Z,12.87
2023-09-12T23:00:59.730Z,12.83
2023-09-12T23:03:26.595Z,12.78
2023-09-12T23:05:53.390Z,12.81
2023-09-12T23:08:20.149Z,12.75
2023-09-12T23:10:46.937Z,12.80
2023-09-12T23:13:13.749Z,12.77
2023-09-12T23:15:40.849Z,12.69
2023-09-12T23:18:07.803Z,12.62
2023-09-12T23:20:35.482Z,12.57
2023-09-12T23:23:02.440Z,12.52
2023-09-12T23:25:29.245Z,12.45
2023-09-12T23:27:56.059Z,12.38
2023-09-12T23:30:22.861Z,12.52
2023-09-12T23:32:49.637Z,12.35
2023-09-12T23:35:16.417Z,12.36
2023-09-12T23:37:43.348Z,12.29
2023-09-12T23:40:10.903Z,12.25
2023-09-12T23:42:39.149Z,12.17
2023-09-12T23:45:06.525Z,12.16
2023-09-12T23:47:33.397Z,12.11
2023-09-12T23:50:00.222Z,12.15
2023-09-12T23:52:28.836Z,12.13
2023-09-12T23:54:55.795Z,12.11
2023-09-12T23:57:22.581Z,11.99
2023-09-12T23:59:49.996Z,12.07
